sensor_id;sensor_type;location;lat;lon;timestamp;P1;durP1;ratioP1;P2;durP2;ratioP2
83429;SDS011;73362;50.952;6.952;2023-11-21T00:00:45;8.70;;;6.73;;
83429;SDS011;73362;50.952;6.952;2023-11-21T00:03:13;9.20;;;7.10;;
83429;SDS011;73362;50.952;6.952;2023-11-21T00:05:41;10.57;;;7.03;;
83429;SDS011;73362;50.952;6.952;2023-11-21T00:08:09;11.63;;;7.17;;
83429;SDS011;73362;50.952;6.952;2023-11-21T00:10:37;9.10;;;6.07;;
83429;SDS011;73362;50.952;6.952;2023-11-21T00:13:06;11.27;;;7.10;;
83429;SDS011;73362;50.952;6.952;2023-11-21T00:15:34;12.07;;;7.43;;
83429;SDS011;73362;50.952;6.952;2023-11-21T00:18:02;12.13;;;8.43;;
83429;SDS011;73362;50.952;6.952;2023-11-21T00:20:30;14.77;;;9.30;;
83429;SDS011;73362;50.952;6.952;2023-11-21T00:22:58;12.67;;;8.07;;
83429;SDS011;73362;50.952;6.952;2023-11-21T00:25:26;12.53;;;8.43;;
83429;SDS011;73362;50.952;6.952;2023-11-21T00:27:54;13.10;;;8.73;;
83429;SDS011;73362;50.952;6.952;2023-11-21T00:30:22;15.23;;;9.07;;
83429;SDS011;73362;50.952;6.952;2023-11-21T00:32:50;10.53;;;8.33;;
83429;SDS011;73362;50.952;6.952;2023-11-21T00:35:18;13.70;;;9.57;;
83429;SDS011;73362;50.952;6.952;2023-11-21T00:37:46;17.20;;;9.90;;
83429;SDS011;73362;50.952;6.952;2023-11-21T00:40:14;14.53;;;9.43;;
83429;SDS011;73362;50.952;6.952;2023-11-21T00:42:42;16.30;;;10.10;;
83429;SDS011;73362;50.952;6.952;2023-11-21T00:45:10;14.30;;;9.90;;
83429;SDS011;73362;50.952;6.952;2023-11-21T00:47:38;14.77;;;9.93;;
83429;SDS011;73362;50.952;6.952;2023-11-21T00:50:06;14.57;;;8.87;;
83429;SDS011;73362;50.952;6.952;2023-11-21T00:52:34;14.90;;;10.23;;
83429;SDS011;73362;50.952;6.952;2023-11-21T00:55:03;18.10;;;10.47;;
83429;SDS011;73362;50.952;6.952;2023-11-21T00:57:30;12.77;;;9.30;;
83429;SDS011;73362;50.952;6.952;2023-11-21T00:59:58;18.67;;;9.63;;
83429;SDS011;73362;50.952;6.952;2023-11-21T01:02:26;18.13;;;10.10;;
83429;SDS011;73362;50.952;6.952;2023-11-21T01:04:54;15.80;;;11.67;;
83429;SDS011;73362;50.952;6.952;2023-11-21T01:07:23;16.60;;;10.43;;
83429;SDS011;73362;50.952;6.952;2023-11-21T01:09:51;14.13;;;10.37;;
83429;SDS011;73362;50.952;6.952;2023-11-21T01:12:19;19.60;;;10.43;;
83429;SDS011;73362;50.952;6.952;2023-11-21T01:14:47;15.20;;;10.03;;
83429;SDS011;73362;50.952;6.952;2023-11-21T01:17:15;16.50;;;10.03;;
83429;SDS011;73362;50.952;6.952;2023-11-21T01:19:43;14.97;;;10.03;;
83429;SDS011;73362;50.952;6.952;2023-11-21T01:22:11;18.07;;;10.03;;
83429;SDS011;73362;50.952;6.952;2023-11-21T01:24:39;15.37;;;9.90;;
83429;SDS011;73362;50.952;6.952;2023-11-21T01:27:07;15.27;;;9.70;;
83429;SDS011;73362;50.952;6.952;2023-11-21T01:29:35;13.27;;;9.53;;
83429;SDS011;73362;50.952;6.952;2023-11-21T01:32:03;14.67;;;8.83;;
83429;SDS011;73362;50.952;6.952;2023-11-21T01:34:31;15.07;;;9.60;;
83429;SDS011;73362;50.952;6.952;2023-11-21T01:36:59;16.20;;;9.60;;
83429;SDS011;73362;50.952;6.952;2023-11-21T01:39:27;14.43;;;8.93;;
83429;SDS011;73362;50.952;6.952;2023-11-21T01:41:55;14.97;;;9.77;;
83429;SDS011;73362;50.952;6.952;2023-11-21T01:44:23;16.83;;;9.70;;
83429;SDS011;73362;50.952;6.952;2023-11-21T01:46:51;16.80;;;11.03;;
83429;SDS011;73362;50.952;6.952;2023-11-21T01:49:19;15.47;;;10.43;;
83429;SDS011;73362;50.952;6.952;2023-11-21T01:51:47;15.97;;;10.03;;
83429;SDS011;73362;50.952;6.952;2023-11-21T01:54:16;16.23;;;9.27;;
83429;SDS011;73362;50.952;6.952;2023-11-21T01:56:45;14.77;;;9.17;;
83429;SDS011;73362;50.952;6.952;2023-11-21T01:59:12;14.23;;;9.17;;
83429;SDS011;73362;50.952;6.952;2023-11-21T02:01:39;14.97;;;9.43;;
83429;SDS011;73362;50.952;6.952;2023-11-21T02:04:07;16.73;;;10.17;;
83429;SDS011;73362;50.952;6.952;2023-11-21T02:06:35;21.53;;;11.60;;
83429;SDS011;73362;50.952;6.952;2023-11-21T02:09:04;20.27;;;11.70;;
83429;SDS011;73362;50.952;6.952;2023-11-21T02:11:32;18.60;;;11.20;;
83429;SDS011;73362;50.952;6.952;2023-11-21T02:14:00;18.67;;;11.47;;
83429;SDS011;73362;50.952;6.952;2023-11-21T02:16:28;15.70;;;10.87;;
83429;SDS011;73362;50.952;6.952;2023-11-21T02:18:56;15.93;;;10.33;;
83429;SDS011;73362;50.952;6.952;2023-11-21T02:21:24;16.17;;;10.50;;
83429;SDS011;73362;50.952;6.952;2023-11-21T02:23:52;16.10;;;11.23;;
83429;SDS011;73362;50.952;6.952;2023-11-21T02:26:20;17.27;;;12.40;;
83429;SDS011;73362;50.952;6.952;2023-11-21T02:28:48;19.77;;;12.10;;
83429;SDS011;73362;50.952;6.952;2023-11-21T02:31:16;19.80;;;11.97;;
83429;SDS011;73362;50.952;6.952;2023-11-21T02:33:44;22.23;;;13.17;;
83429;SDS011;73362;50.952;6.952;2023-11-21T02:36:12;21.73;;;12.93;;
83429;SDS011;73362;50.952;6.952;2023-11-21T02:38:40;22.30;;;13.40;;
83429;SDS011;73362;50.952;6.952;2023-11-21T02:41:08;22.47;;;14.03;;
83429;SDS011;73362;50.952;6.952;2023-11-21T02:43:36;23.37;;;14.27;;
83429;SDS011;73362;50.952;6.952;2023-11-21T02:46:04;20.07;;;13.77;;
83429;SDS011;73362;50.952;6.952;2023-11-21T02:48:32;24.37;;;14.13;;
83429;SDS011;73362;50.952;6.952;2023-11-21T02:51:00;21.73;;;13.07;;
83429;SDS011;73362;50.952;6.952;2023-11-21T02:53:29;20.10;;;13.13;;
83429;SDS011;73362;50.952;6.952;2023-11-21T02:55:57;21.63;;;13.43;;
83429;SDS011;73362;50.952;6.952;2023-11-21T02:58:25;20.87;;;12.80;;
83429;SDS011;73362;50.952;6.952;2023-11-21T03:00:53;22.63;;;13.50;;
83429;SDS011;73362;50.952;6.952;2023-11-21T03:03:21;20.33;;;12.40;;
83429;SDS011;73362;50.952;6.952;2023-11-21T03:05:49;23.37;;;12.87;;
83429;SDS011;73362;50.952;6.952;2023-11-21T03:08:17;18.40;;;11.63;;
83429;SDS011;73362;50.952;6.952;2023-11-21T03:10:45;19.97;;;11.77;;
83429;SDS011;73362;50.952;6.952;2023-11-21T03:13:13;20.60;;;12.00;;
83429;SDS011;73362;50.952;6.952;2023-11-21T03:15:41;16.53;;;10.43;;
83429;SDS011;73362;50.952;6.952;2023-11-21T03:18:09;16.63;;;10.10;;
83429;SDS011;73362;50.952;6.952;2023-11-21T03:20:37;15.63;;;10.70;;
83429;SDS011;73362;50.952;6.952;2023-11-21T03:23:05;16.60;;;10.43;;
83429;SDS011;73362;50.952;6.952;2023-11-21T03:25:33;14.30;;;10.10;;
83429;SDS011;73362;50.952;6.952;2023-11-21T03:28:01;16.87;;;10.90;;
83429;SDS011;73362;50.952;6.952;2023-11-21T03:30:29;18.50;;;11.10;;
83429;SDS011;73362;50.952;6.952;2023-11-21T03:32:57;18.47;;;11.00;;
83429;SDS011;73362;50.952;6.952;2023-11-21T03:35:25;20.50;;;11.07;;
83429;SDS011;73362;50.952;6.952;2023-11-21T03:37:53;16.77;;;10.63;;
83429;SDS011;73362;50.952;6.952;2023-11-21T03:40:21;18.53;;;11.10;;
83429;SDS011;73362;50.952;6.952;2023-11-21T03:42:49;20.53;;;11.90;;
83429;SDS011;73362;50.952;6.952;2023-11-21T03:45:17;20.40;;;11.50;;
83429;SDS011;73362;50.952;6.952;2023-11-21T03:47:45;18.87;;;12.27;;
83429;SDS011;73362;50.952;6.952;2023-11-21T03:50:13;17.73;;;12.53;;
83429;SDS011;73362;50.952;6.952;2023-11-21T03:52:42;18.87;;;12.77;;
83429;SDS011;73362;50.952;6.952;2023-11-21T03:55:10;21.33;;;11.67;;
83429;SDS011;73362;50.952;6.952;2023-11-21T03:57:38;22.57;;;12.87;;
83429;SDS011;73362;50.952;6.952;2023-11-21T04:00:06;20.27;;;13.00;;
83429;SDS011;73362;50.952;6.952;2023-11-21T04:02:34;21.30;;;12.60;;
83429;SDS011;73362;50.952;6.952;2023-11-21T04:05:02;22.33;;;13.10;;
83429;SDS011;73362;50.952;6.952;2023-11-21T04:07:30;20.77;;;12.93;;
83429;SDS011;73362;50.952;6.952;2023-11-21T04:09:59;19.17;;;12.80;;
83429;SDS011;73362;50.952;6.952;2023-11-21T04:12:26;20.87;;;13.93;;
83429;SDS011;73362;50.952;6.952;2023-11-21T04:14:54;23.50;;;13.80;;
83429;SDS011;73362;50.952;6.952;2023-11-21T04:17:22;20.03;;;13.13;;
83429;SDS011;73362;50.952;6.952;2023-11-21T04:19:50;20.07;;;13.20;;
83429;SDS011;73362;50.952;6.952;2023-11-21T04:22:18;22.53;;;13.90;;
83429;SDS011;73362;50.952;6.952;2023-11-21T04:24:47;23.80;;;14.00;;
83429;SDS011;73362;50.952;6.952;2023-11-21T04:27:15;23.67;;;14.07;;
83429;SDS011;73362;50.952;6.952;2023-11-21T04:29:43;22.50;;;13.90;;
83429;SDS011;73362;50.952;6.952;2023-11-21T04:32:11;22.60;;;13.67;;
83429;SDS011;73362;50.952;6.952;2023-11-21T04:34:39;21.93;;;13.47;;
83429;SDS011;73362;50.952;6.952;2023-11-21T04:37:07;23.03;;;14.70;;
83429;SDS011;73362;50.952;6.952;2023-11-21T04:39:35;21.70;;;14.33;;
83429;SDS011;73362;50.952;6.952;2023-11-21T04:42:03;21.37;;;14.23;;
83429;SDS011;73362;50.952;6.952;2023-11-21T04:44:31;24.03;;;13.63;;
83429;SDS011;73362;50.952;6.952;2023-11-21T04:46:59;25.00;;;13.97;;
83429;SDS011;73362;50.952;6.952;2023-11-21T04:49:27;25.43;;;15.03;;
83429;SDS011;73362;50.952;6.952;2023-11-21T04:51:55;23.40;;;14.43;;
83429;SDS011;73362;50.952;6.952;2023-11-21T04:54:23;22.00;;;13.77;;
83429;SDS011;73362;50.952;6.952;2023-11-21T04:56:51;23.87;;;13.70;;
83429;SDS011;73362;50.952;6.952;2023-11-21T04:59:19;22.80;;;14.00;;
83429;SDS011;73362;50.952;6.952;2023-11-21T05:01:47;21.63;;;14.07;;
83429;SDS011;73362;50.952;6.952;2023-11-21T05:04:15;23.17;;;14.30;;
83429;SDS011;73362;50.952;6.952;2023-11-21T05:06:43;21.80;;;14.03;;
83429;SDS011;73362;50.952;6.952;2023-11-21T05:09:11;25.00;;;14.90;;
83429;SDS011;73362;50.952;6.952;2023-11-21T05:11:40;22.57;;;13.37;;
83429;SDS011;73362;50.952;6.952;2023-11-21T05:14:07;24.63;;;14.37;;
83429;SDS011;73362;50.952;6.952;2023-11-21T05:16:35;26.17;;;14.77;;
83429;SDS011;73362;50.952;6.952;2023-11-21T05:19:03;21.03;;;13.93;;
83429;SDS011;73362;50.952;6.952;2023-11-21T05:21:31;23.00;;;13.40;;
83429;SDS011;73362;50.952;6.952;2023-11-21T05:23:59;26.40;;;13.93;;
83429;SDS011;73362;50.952;6.952;2023-11-21T05:26:27;24.63;;;14.53;;
83429;SDS011;73362;50.952;6.952;2023-11-21T05:28:56;26.73;;;15.50;;
83429;SDS011;73362;50.952;6.952;2023-11-21T05:31:24;24.13;;;14.50;;
83429;SDS011;73362;50.952;6.952;2023-11-21T05:33:52;24.53;;;14.33;;
83429;SDS011;73362;50.952;6.952;2023-11-21T05:36:20;19.97;;;13.20;;
83429;SDS011;73362;50.952;6.952;2023-11-21T05:38:48;22.40;;;13.50;;
83429;SDS011;73362;50.952;6.952;2023-11-21T05:41:16;27.27;;;14.50;;
83429;SDS011;73362;50.952;6.952;2023-11-21T05:43:44;24.80;;;14.03;;
83429;SDS011;73362;50.952;6.952;2023-11-21T05:46:12;23.83;;;14.00;;
83429;SDS011;73362;50.952;6.952;2023-11-21T05:48:40;29.97;;;14.23;;
83429;SDS011;73362;50.952;6.952;2023-11-21T05:51:08;20.73;;;13.60;;
83429;SDS011;73362;50.952;6.952;2023-11-21T05:53:36;25.37;;;13.80;;
83429;SDS011;73362;50.952;6.952;2023-11-21T05:56:04;23.33;;;13.63;;
83429;SDS011;73362;50.952;6.952;2023-11-21T05:58:32;23.07;;;13.50;;
83429;SDS011;73362;50.952;6.952;2023-11-21T06:01:00;23.47;;;13.97;;
83429;SDS011;73362;50.952;6.952;2023-11-21T06:03:28;22.60;;;13.23;;
83429;SDS011;73362;50.952;6.952;2023-11-21T06:05:56;18.53;;;12.83;;
83429;SDS011;73362;50.952;6.952;2023-11-21T06:08:24;22.53;;;14.07;;
83429;SDS011;73362;50.952;6.952;2023-11-21T06:10:52;24.33;;;13.00;;
83429;SDS011;73362;50.952;6.952;2023-11-21T06:13:20;23.63;;;13.13;;
83429;SDS011;73362;50.952;6.952;2023-11-21T06:15:48;21.70;;;12.47;;
83429;SDS011;73362;50.952;6.952;2023-11-21T06:18:16;23.17;;;13.43;;
83429;SDS011;73362;50.952;6.952;2023-11-21T06:20:45;22.73;;;12.80;;
83429;SDS011;73362;50.952;6.952;2023-11-21T06:23:12;23.83;;;13.30;;
83429;SDS011;73362;50.952;6.952;2023-11-21T06:25:40;20.43;;;12.40;;
83429;SDS011;73362;50.952;6.952;2023-11-21T06:28:08;21.87;;;13.20;;
83429;SDS011;73362;50.952;6.952;2023-11-21T06:30:37;21.67;;;13.10;;
83429;SDS011;73362;50.952;6.952;2023-11-21T06:33:05;24.70;;;12.63;;
83429;SDS011;73362;50.952;6.952;2023-11-21T06:35:33;22.73;;;13.03;;
83429;SDS011;73362;50.952;6.952;2023-11-21T06:38:01;24.43;;;13.27;;
83429;SDS011;73362;50.952;6.952;2023-11-21T06:40:29;21.33;;;12.97;;
83429;SDS011;73362;50.952;6.952;2023-11-21T06:42:57;23.90;;;14.03;;
83429;SDS011;73362;50.952;6.952;2023-11-21T06:45:25;24.30;;;13.47;;
83429;SDS011;73362;50.952;6.952;2023-11-21T06:47:53;25.77;;;13.63;;
83429;SDS011;73362;50.952;6.952;2023-11-21T06:50:21;26.37;;;13.97;;
83429;SDS011;73362;50.952;6.952;2023-11-21T06:52:49;23.57;;;13.87;;
83429;SDS011;73362;50.952;6.952;2023-11-21T06:55:17;26.00;;;13.97;;
83429;SDS011;73362;50.952;6.952;2023-11-21T06:57:45;21.23;;;13.87;;
83429;SDS011;73362;50.952;6.952;2023-11-21T07:00:13;24.70;;;14.20;;
83429;SDS011;73362;50.952;6.952;2023-11-21T07:02:41;27.37;;;15.70;;
83429;SDS011;73362;50.952;6.952;2023-11-21T07:05:09;26.67;;;15.10;;
83429;SDS011;73362;50.952;6.952;2023-11-21T07:07:37;28.13;;;15.63;;
83429;SDS011;73362;50.952;6.952;2023-11-21T07:10:06;35.67;;;18.00;;
83429;SDS011;73362;50.952;6.952;2023-11-21T07:12:34;25.93;;;15.83;;
83429;SDS011;73362;50.952;6.952;2023-11-21T07:15:02;27.77;;;15.40;;
83429;SDS011;73362;50.952;6.952;2023-11-21T07:17:30;27.60;;;16.57;;
83429;SDS011;73362;50.952;6.952;2023-11-21T07:19:58;27.13;;;16.23;;
83429;SDS011;73362;50.952;6.952;2023-11-21T07:22:26;29.93;;;16.40;;
83429;SDS011;73362;50.952;6.952;2023-11-21T07:24:54;28.17;;;16.33;;
83429;SDS011;73362;50.952;6.952;2023-11-21T07:27:22;28.50;;;16.37;;
83429;SDS011;73362;50.952;6.952;2023-11-21T07:29:50;31.60;;;16.90;;
83429;SDS011;73362;50.952;6.952;2023-11-21T07:32:18;28.07;;;15.93;;
83429;SDS011;73362;50.952;6.952;2023-11-21T07:34:46;31.43;;;16.43;;
83429;SDS011;73362;50.952;6.952;2023-11-21T07:37:14;30.10;;;16.73;;
83429;SDS011;73362;50.952;6.952;2023-11-21T07:39:42;30.43;;;16.67;;
83429;SDS011;73362;50.952;6.952;2023-11-21T07:42:11;27.87;;;17.67;;
83429;SDS011;73362;50.952;6.952;2023-11-21T07:44:39;31.17;;;16.93;;
83429;SDS011;73362;50.952;6.952;2023-11-21T07:47:07;27.63;;;16.67;;
83429;SDS011;73362;50.952;6.952;2023-11-21T07:49:35;29.47;;;17.03;;
83429;SDS011;73362;50.952;6.952;2023-11-21T07:52:03;29.27;;;16.70;;
83429;SDS011;73362;50.952;6.952;2023-11-21T07:54:31;27.03;;;15.97;;
83429;SDS011;73362;50.952;6.952;2023-11-21T07:57:02;28.83;;;17.43;;
83429;SDS011;73362;50.952;6.952;2023-11-21T07:59:30;32.50;;;17.33;;
83429;SDS011;73362;50.952;6.952;2023-11-21T08:01:58;30.50;;;16.30;;
83429;SDS011;73362;50.952;6.952;2023-11-21T08:04:26;32.13;;;17.13;;
83429;SDS011;73362;50.952;6.952;2023-11-21T08:06:55;30.43;;;16.50;;
83429;SDS011;73362;50.952;6.952;2023-11-21T08:09:23;32.63;;;17.33;;
83429;SDS011;73362;50.952;6.952;2023-11-21T08:11:53;31.23;;;16.53;;
83429;SDS011;73362;50.952;6.952;2023-11-21T08:14:21;31.60;;;16.90;;
83429;SDS011;73362;50.952;6.952;2023-11-21T08:16:49;36.27;;;17.97;;
83429;SDS011;73362;50.952;6.952;2023-11-21T08:19:17;32.53;;;17.03;;
83429;SDS011;73362;50.952;6.952;2023-11-21T08:21:46;31.00;;;16.63;;
83429;SDS011;73362;50.952;6.952;2023-11-21T08:24:14;31.93;;;16.90;;
83429;SDS011;73362;50.952;6.952;2023-11-21T08:26:42;33.70;;;16.50;;
83429;SDS011;73362;50.952;6.952;2023-11-21T08:29:10;32.60;;;16.83;;
83429;SDS011;73362;50.952;6.952;2023-11-21T08:31:38;32.57;;;17.57;;
83429;SDS011;73362;50.952;6.952;2023-11-21T08:34:06;33.40;;;17.20;;
83429;SDS011;73362;50.952;6.952;2023-11-21T08:36:34;32.37;;;17.13;;
83429;SDS011;73362;50.952;6.952;2023-11-21T08:39:02;31.43;;;17.10;;
83429;SDS011;73362;50.952;6.952;2023-11-21T08:41:30;30.13;;;17.27;;
83429;SDS011;73362;50.952;6.952;2023-11-21T08:43:58;32.60;;;17.07;;
83429;SDS011;73362;50.952;6.952;2023-11-21T08:46:26;32.07;;;17.20;;
83429;SDS011;73362;50.952;6.952;2023-11-21T08:48:54;30.97;;;16.90;;
83429;SDS011;73362;50.952;6.952;2023-11-21T08:51:22;29.40;;;17.33;;
83429;SDS011;73362;50.952;6.952;2023-11-21T08:53:51;30.67;;;15.73;;
83429;SDS011;73362;50.952;6.952;2023-11-21T08:56:19;36.63;;;18.33;;
83429;SDS011;73362;50.952;6.952;2023-11-21T08:58:48;32.30;;;17.83;;
83429;SDS011;73362;50.952;6.952;2023-11-21T09:01:16;38.37;;;19.00;;
83429;SDS011;73362;50.952;6.952;2023-11-21T09:03:44;36.60;;;18.13;;
83429;SDS011;73362;50.952;6.952;2023-11-21T09:06:12;32.13;;;17.40;;
83429;SDS011;73362;50.952;6.952;2023-11-21T09:08:41;33.43;;;17.27;;
83429;SDS011;73362;50.952;6.952;2023-11-21T09:11:09;38.27;;;18.70;;
83429;SDS011;73362;50.952;6.952;2023-11-21T09:13:37;33.50;;;18.63;;
83429;SDS011;73362;50.952;6.952;2023-11-21T09:16:06;31.63;;;17.47;;
83429;SDS011;73362;50.952;6.952;2023-11-21T09:18:34;34.90;;;18.00;;
83429;SDS011;73362;50.952;6.952;2023-11-21T09:21:02;31.07;;;16.90;;
83429;SDS011;73362;50.952;6.952;2023-11-21T09:23:30;36.13;;;17.43;;
83429;SDS011;73362;50.952;6.952;2023-11-21T09:25:58;37.13;;;18.10;;
83429;SDS011;73362;50.952;6.952;2023-11-21T09:28:26;29.27;;;18.10;;
83429;SDS011;73362;50.952;6.952;2023-11-21T09:30:56;37.40;;;17.57;;
83429;SDS011;73362;50.952;6.952;2023-11-21T09:33:24;35.23;;;17.87;;
83429;SDS011;73362;50.952;6.952;2023-11-21T09:35:52;32.57;;;18.53;;
83429;SDS011;73362;50.952;6.952;2023-11-21T09:38:21;33.50;;;17.80;;
83429;SDS011;73362;50.952;6.952;2023-11-21T09:40:50;38.03;;;19.27;;
83429;SDS011;73362;50.952;6.952;2023-11-21T09:43:18;32.53;;;18.83;;
83429;SDS011;73362;50.952;6.952;2023-11-21T09:45:46;40.33;;;19.97;;
83429;SDS011;73362;50.952;6.952;2023-11-21T09:48:14;37.83;;;20.07;;
83429;SDS011;73362;50.952;6.952;2023-11-21T09:50:43;35.67;;;18.80;;
83429;SDS011;73362;50.952;6.952;2023-11-21T09:53:17;34.70;;;18.53;;
83429;SDS011;73362;50.952;6.952;2023-11-21T09:55:43;36.83;;;19.13;;
83429;SDS011;73362;50.952;6.952;2023-11-21T09:58:10;34.13;;;17.83;;
83429;SDS011;73362;50.952;6.952;2023-11-21T10:00:40;40.13;;;17.97;;
83429;SDS011;73362;50.952;6.952;2023-11-21T10:03:08;29.47;;;16.60;;
83429;SDS011;73362;50.952;6.952;2023-11-21T10:05:36;31.10;;;16.53;;
83429;SDS011;73362;50.952;6.952;2023-11-21T10:08:04;31.97;;;16.83;;
83429;SDS011;73362;50.952;6.952;2023-11-21T10:10:32;30.50;;;17.63;;
83429;SDS011;73362;50.952;6.952;2023-11-21T10:13:01;31.97;;;16.67;;
83429;SDS011;73362;50.952;6.952;2023-11-21T10:15:28;31.63;;;18.00;;
83429;SDS011;73362;50.952;6.952;2023-11-21T10:17:56;38.40;;;17.30;;
83429;SDS011;73362;50.952;6.952;2023-11-21T10:20:24;33.93;;;18.53;;
83429;SDS011;73362;50.952;6.952;2023-11-21T10:22:52;31.57;;;17.00;;
83429;SDS011;73362;50.952;6.952;2023-11-21T10:25:20;37.03;;;18.77;;
83429;SDS011;73362;50.952;6.952;2023-11-21T10:27:49;30.30;;;16.17;;
83429;SDS011;73362;50.952;6.952;2023-11-21T10:30:16;31.97;;;16.40;;
83429;SDS011;73362;50.952;6.952;2023-11-21T10:32:44;30.07;;;16.47;;
83429;SDS011;73362;50.952;6.952;2023-11-21T10:35:12;31.40;;;16.33;;
83429;SDS011;73362;50.952;6.952;2023-11-21T10:37:40;34.00;;;18.00;;
83429;SDS011;73362;50.952;6.952;2023-11-21T10:40:09;33.97;;;17.57;;
83429;SDS011;73362;50.952;6.952;2023-11-21T10:42:37;35.83;;;18.90;;
83429;SDS011;73362;50.952;6.952;2023-11-21T10:45:05;36.63;;;19.27;;
83429;SDS011;73362;50.952;6.952;2023-11-21T10:47:33;35.93;;;18.67;;
83429;SDS011;73362;50.952;6.952;2023-11-21T10:50:02;40.43;;;19.43;;
83429;SDS011;73362;50.952;6.952;2023-11-21T10:52:30;34.70;;;17.57;;
83429;SDS011;73362;50.952;6.952;2023-11-21T10:54:58;34.90;;;18.57;;
83429;SDS011;73362;50.952;6.952;2023-11-21T10:57:26;34.60;;;17.73;;
83429;SDS011;73362;50.952;6.952;2023-11-21T10:59:54;35.53;;;18.40;;
83429;SDS011;73362;50.952;6.952;2023-11-21T11:02:23;42.27;;;20.17;;
83429;SDS011;73362;50.952;6.952;2023-11-21T11:04:51;35.97;;;18.77;;
83429;SDS011;73362;50.952;6.952;2023-11-21T11:07:19;38.37;;;19.43;;
83429;SDS011;73362;50.952;6.952;2023-11-21T11:09:47;38.47;;;19.50;;
83429;SDS011;73362;50.952;6.952;2023-11-21T11:12:15;38.10;;;19.37;;
83429;SDS011;73362;50.952;6.952;2023-11-21T11:14:43;39.97;;;20.67;;
83429;SDS011;73362;50.952;6.952;2023-11-21T11:17:11;39.67;;;19.87;;
83429;SDS011;73362;50.952;6.952;2023-11-21T11:19:39;41.77;;;19.67;;
83429;SDS011;73362;50.952;6.952;2023-11-21T11:24:56;42.17;;;19.97;;
83429;SDS011;73362;50.952;6.952;2023-11-21T11:27:27;44.23;;;20.37;;
83429;SDS011;73362;50.952;6.952;2023-11-21T11:30:02;37.50;;;18.63;;
83429;SDS011;73362;50.952;6.952;2023-11-21T11:32:33;38.00;;;18.33;;
83429;SDS011;73362;50.952;6.952;2023-11-21T11:35:00;39.03;;;18.83;;
83429;SDS011;73362;50.952;6.952;2023-11-21T11:37:25;37.23;;;18.03;;
83429;SDS011;73362;50.952;6.952;2023-11-21T11:39:53;32.97;;;17.47;;
83429;SDS011;73362;50.952;6.952;2023-11-21T11:42:21;36.27;;;18.67;;
83429;SDS011;73362;50.952;6.952;2023-11-21T11:44:50;37.40;;;17.23;;
83429;SDS011;73362;50.952;6.952;2023-11-21T11:47:20;39.00;;;18.90;;
83429;SDS011;73362;50.952;6.952;2023-11-21T11:54:55;41.90;;;19.33;;
83429;SDS011;73362;50.952;6.952;2023-11-21T11:57:24;40.00;;;17.97;;
83429;SDS011;73362;50.952;6.952;2023-11-21T12:02:26;34.93;;;18.13;;
83429;SDS011;73362;50.952;6.952;2023-11-21T12:04:55;36.00;;;17.20;;
83429;SDS011;73362;50.952;6.952;2023-11-21T12:07:22;36.27;;;16.57;;
83429;SDS011;73362;50.952;6.952;2023-11-21T12:09:50;37.40;;;17.67;;
83429;SDS011;73362;50.952;6.952;2023-11-21T12:12:18;33.37;;;16.80;;
83429;SDS011;73362;50.952;6.952;2023-11-21T12:14:46;33.23;;;16.90;;
83429;SDS011;73362;50.952;6.952;2023-11-21T12:17:14;36.73;;;17.33;;
83429;SDS011;73362;50.952;6.952;2023-11-21T12:19:42;36.67;;;18.20;;
83429;SDS011;73362;50.952;6.952;2023-11-21T12:22:10;37.73;;;17.93;;
83429;SDS011;73362;50.952;6.952;2023-11-21T12:24:38;36.17;;;17.00;;
83429;SDS011;73362;50.952;6.952;2023-11-21T12:27:06;39.43;;;17.97;;
83429;SDS011;73362;50.952;6.952;2023-11-21T12:29:34;32.97;;;15.43;;
83429;SDS011;73362;50.952;6.952;2023-11-21T12:32:02;33.20;;;15.90;;
83429;SDS011;73362;50.952;6.952;2023-11-21T12:34:31;36.80;;;17.23;;
83429;SDS011;73362;50.952;6.952;2023-11-21T12:36:58;39.80;;;18.83;;
83429;SDS011;73362;50.952;6.952;2023-11-21T12:39:26;42.47;;;20.37;;
83429;SDS011;73362;50.952;6.952;2023-11-21T12:41:54;41.80;;;19.80;;
83429;SDS011;73362;50.952;6.952;2023-11-21T12:44:22;38.10;;;20.27;;
83429;SDS011;73362;50.952;6.952;2023-11-21T12:46:51;39.80;;;19.53;;
83429;SDS011;73362;50.952;6.952;2023-11-21T12:49:19;40.27;;;19.97;;
83429;SDS011;73362;50.952;6.952;2023-11-21T12:51:47;39.60;;;19.50;;
83429;SDS011;73362;50.952;6.952;2023-11-21T12:54:15;37.00;;;18.77;;
83429;SDS011;73362;50.952;6.952;2023-11-21T12:56:45;37.30;;;18.30;;
83429;SDS011;73362;50.952;6.952;2023-11-21T12:59:12;35.57;;;17.93;;
83429;SDS011;73362;50.952;6.952;2023-11-21T13:01:41;33.17;;;17.50;;
83429;SDS011;73362;50.952;6.952;2023-11-21T13:04:07;34.63;;;17.40;;
83429;SDS011;73362;50.952;6.952;2023-11-21T13:06:35;34.27;;;17.53;;
83429;SDS011;73362;50.952;6.952;2023-11-21T13:09:03;35.03;;;16.60;;
83429;SDS011;73362;50.952;6.952;2023-11-21T13:11:34;38.73;;;18.50;;
83429;SDS011;73362;50.952;6.952;2023-11-21T13:13:59;36.93;;;18.23;;
83429;SDS011;73362;50.952;6.952;2023-11-21T13:16:27;39.30;;;18.90;;
83429;SDS011;73362;50.952;6.952;2023-11-21T13:18:55;36.23;;;18.80;;
83429;SDS011;73362;50.952;6.952;2023-11-21T13:21:24;41.90;;;18.17;;
83429;SDS011;73362;50.952;6.952;2023-11-21T13:23:52;37.73;;;18.97;;
83429;SDS011;73362;50.952;6.952;2023-11-21T13:26:20;33.37;;;18.57;;
83429;SDS011;73362;50.952;6.952;2023-11-21T13:28:48;34.40;;;17.60;;
83429;SDS011;73362;50.952;6.952;2023-11-21T13:31:16;33.60;;;17.00;;
83429;SDS011;73362;50.952;6.952;2023-11-21T13:33:49;36.13;;;18.87;;
83429;SDS011;73362;50.952;6.952;2023-11-21T13:36:18;29.83;;;16.43;;
83429;SDS011;73362;50.952;6.952;2023-11-21T13:38:46;40.47;;;19.70;;
83429;SDS011;73362;50.952;6.952;2023-11-21T13:41:14;34.50;;;18.67;;
83429;SDS011;73362;50.952;6.952;2023-11-21T13:43:42;39.17;;;18.60;;
83429;SDS011;73362;50.952;6.952;2023-11-21T13:46:11;39.13;;;19.20;;
83429;SDS011;73362;50.952;6.952;2023-11-21T13:48:41;39.60;;;19.87;;
83429;SDS011;73362;50.952;6.952;2023-11-21T13:51:09;40.23;;;18.43;;
83429;SDS011;73362;50.952;6.952;2023-11-21T13:53:38;43.60;;;19.80;;
83429;SDS011;73362;50.952;6.952;2023-11-21T13:56:06;36.77;;;18.77;;
83429;SDS011;73362;50.952;6.952;2023-11-21T13:58:34;41.77;;;19.23;;
83429;SDS011;73362;50.952;6.952;2023-11-21T14:01:02;42.87;;;19.80;;
83429;SDS011;73362;50.952;6.952;2023-11-21T14:03:30;42.13;;;19.97;;
83429;SDS011;73362;50.952;6.952;2023-11-21T14:06:00;39.47;;;20.07;;
83429;SDS011;73362;50.952;6.952;2023-11-21T14:08:28;41.03;;;20.27;;
83429;SDS011;73362;50.952;6.952;2023-11-21T14:10:57;46.50;;;21.40;;
83429;SDS011;73362;50.952;6.952;2023-11-21T14:13:25;45.77;;;21.83;;
83429;SDS011;73362;50.952;6.952;2023-11-21T14:15:52;44.27;;;21.57;;
83429;SDS011;73362;50.952;6.952;2023-11-21T14:18:23;44.90;;;21.53;;
83429;SDS011;73362;50.952;6.952;2023-11-21T14:20:50;38.93;;;19.63;;
83429;SDS011;73362;50.952;6.952;2023-11-21T14:23:18;39.03;;;19.33;;
83429;SDS011;73362;50.952;6.952;2023-11-21T14:25:46;41.07;;;19.40;;
83429;SDS011;73362;50.952;6.952;2023-11-21T14:28:14;39.87;;;19.07;;
83429;SDS011;73362;50.952;6.952;2023-11-21T14:30:42;40.30;;;19.20;;
83429;SDS011;73362;50.952;6.952;2023-11-21T14:33:10;38.23;;;18.73;;
83429;SDS011;73362;50.952;6.952;2023-11-21T14:35:38;39.87;;;20.50;;
83429;SDS011;73362;50.952;6.952;2023-11-21T14:38:07;44.40;;;21.70;;